Time;durP1;ratioP1;P1;durP2;ratioP2;P2;SDS_P1;SDS_P2;PMS_P1;PMS_P2;Temp;Humidity;BMP_temperature;BMP_pressure;BME280_temperature;BME280_humidity;BME280_pressure;Samples;Min_cycle;Max_cycle;Signal;HPM_P1;HPM_P2
2022/03/22 00:00:16;;;;;;;7.27;5.50;;;3.60;95.50;;;;;;5020395;28;20170;-67
2022/03/22 00:02:42;;;;;;;9.30;6.47;;;3.60;95.50;;;;;;5035244;28;20186;-67
2022/03/22 00:05:08;;;;;;;6.43;5.78;;;3.50;95.50;;;;;;5034689;28;20224;-66
2022/03/22 00:07:34;;;;;;;7.40;6.05;;;3.50;95.50;;;;;;5015862;28;20610;-66
2022/03/22 00:10:00;;;;;;;12.97;5.23;;;3.50;95.40;;;;;;5015283;28;20261;-68
2022/03/22 00:12:26;;;;;;;8.37;5.53;;;3.50;95.30;;;;;;5015074;28;20449;-67
2022/03/22 00:14:51;;;;;;;9.65;6.78;;;3.50;95.30;;;;;;5014561;28;20667;-68
2022/03/22 00:17:17;;;;;;;7.23;6.20;;;3.50;95.40;;;;;;5015072;28;20247;-66
2022/03/22 00:19:42;;;;;;;8.87;7.30;;;3.40;95.40;;;;;;5015273;28;20167;-67
2022/03/22 00:22:09;;;;;;;6.87;5.23;;;3.40;95.70;;;;;;5031062;28;20186;-67
2022/03/22 00:24:35;;;;;;;10.57;5.75;;;3.40;95.70;;;;;;5034159;28;20193;-68
2022/03/22 00:27:00;;;;;;;9.20;4.80;;;3.40;96.00;;;;;;5034656;28;20537;-67
2022/03/22 00:29:26;;;;;;;9.13;5.53;;;3.30;95.80;;;;;;5034723;28;20174;-67
2022/03/22 00:31:52;;;;;;;9.77;6.60;;;3.30;95.90;;;;;;5034398;28;20202;-68
2022/03/22 00:34:17;;;;;;;11.50;6.33;;;3.20;96.20;;;;;;5032643;28;20166;-67
2022/03/22 00:36:45;;;;;;;7.47;5.73;;;3.20;96.30;;;;;;5018144;28;20230;-68
2022/03/22 00:39:11;;;;;;;8.98;5.95;;;3.20;96.40;;;;;;5014710;28;20174;-68
2022/03/22 00:41:37;;;;;;;8.45;6.13;;;3.10;97.00;;;;;;5014746;28;20225;-68
2022/03/22 00:44:03;;;;;;;9.73;6.67;;;3.10;97.30;;;;;;5016703;28;20198;-67
2022/03/22 00:46:29;;;;;;;6.70;6.15;;;3.10;97.30;;;;;;5026134;28;20198;-66
2022/03/22 00:48:54;;;;;;;6.47;5.80;;;3.10;97.50;;;;;;5014540;28;20649;-66
2022/03/22 00:51:23;;;;;;;6.07;5.47;;;3.10;97.30;;;;;;5014331;28;20174;-66
2022/03/22 00:53:49;;;;;;;7.05;6.35;;;3.10;97.40;;;;;;5013966;28;20163;-68
2022/03/22 00:56:14;;;;;;;6.73;5.77;;;3.10;97.60;;;;;;5014381;28;20240;-68
2022/03/22 00:58:40;;;;;;;15.07;6.00;;;3.10;97.60;;;;;;5017544;28;20216;-68
2022/03/22 01:01:06;;;;;;;5.50;4.43;;;3.10;97.60;;;;;;5028042;28;20166;-67
2022/03/22 01:03:31;;;;;;;7.07;5.00;;;3.10;97.70;;;;;;5013632;28;20194;-68
2022/03/22 01:05:59;;;;;;;8.13;6.20;;;3.10;97.60;;;;;;5014211;28;20197;-66
2022/03/22 01:08:24;;;;;;;6.90;5.60;;;3.10;97.70;;;;;;5014218;28;20649;-65
2022/03/22 01:10:53;;;;;;;7.63;6.90;;;3.00;97.70;;;;;;5014377;28;20278;-68
2022/03/22 01:13:21;;;;;;;7.90;5.63;;;3.00;98.20;;;;;;5018658;28;20201;-68
2022/03/22 01:15:47;;;;;;;7.55;5.80;;;3.00;97.80;;;;;;5033959;28;20185;-67
2022/03/22 01:18:13;;;;;;;6.65;5.10;;;3.00;97.80;;;;;;5034275;28;20529;-66
2022/03/22 01:20:51;;;;;;;5.33;4.83;;;3.00;97.80;;;;;;5034313;28;20162;-67
2022/03/22 01:23:19;;;;;;;7.13;6.43;;;3.00;97.70;;;;;;5034335;28;20413;-66
2022/03/22 01:25:45;;;;;;;8.73;6.25;;;2.90;97.90;;;;;;5034472;28;20297;-68
2022/03/22 01:28:13;;;;;;;6.33;5.73;;;2.90;98.10;;;;;;5028114;28;20210;-66
2022/03/22 01:30:40;;;;;;;7.43;5.90;;;2.90;98.20;;;;;;5013961;28;20410;-68
2022/03/22 01:33:06;;;;;;;6.53;5.35;;;2.80;98.30;;;;;;5013931;28;20199;-67
2022/03/22 01:35:32;;;;;;;10.27;8.35;;;2.80;98.50;;;;;;5013540;28;20202;-67
2022/03/22 01:37:59;;;;;;;11.32;6.63;;;2.80;98.70;;;;;;5013709;28;20185;-66
2022/03/22 01:40:27;;;;;;;7.63;4.97;;;2.80;98.90;;;;;;5013438;28;20209;-68
2022/03/22 01:42:53;;;;;;;8.85;6.68;;;2.70;98.90;;;;;;5018729;28;20170;-67
2022/03/22 01:45:19;;;;;;;8.73;6.10;;;2.70;99.40;;;;;;5032972;28;20282;-67
2022/03/22 01:47:46;;;;;;;7.97;7.35;;;2.70;99.80;;;;;;5031959;28;20235;-67
2022/03/22 01:50:15;;;;;;;10.35;6.05;;;2.60;99.90;;;;;;5033205;28;20189;-66
2022/03/22 01:52:43;;;;;;;5.43;4.93;;;2.60;99.90;;;;;;5031146;28;20225;-67
2022/03/22 01:55:11;;;;;;;9.10;6.03;;;2.60;99.90;;;;;;5032844;28;20228;-68
2022/03/22 01:57:36;;;;;;;7.70;5.85;;;2.50;99.90;;;;;;5033156;28;20201;-67
2022/03/22 02:00:06;;;;;;;12.80;7.93;;;2.50;99.90;;;;;;5032639;28;20202;-67
2022/03/22 02:08:08;;;;;;;6.13;4.85;;;2.50;99.90;;;;;;5013492;28;20249;-67
2022/03/22 02:10:34;;;;;;;10.23;6.05;;;2.40;99.90;;;;;;5015780;28;20577;-67
2022/03/22 02:13:00;;;;;;;8.68;6.50;;;2.30;99.90;;;;;;5015748;28;20205;-67
2022/03/22 02:15:26;;;;;;;5.72;4.45;;;2.20;99.90;;;;;;5021830;28;20214;-66
2022/03/22 02:17:52;;;;;;;7.03;5.10;;;2.20;99.90;;;;;;5036935;28;20198;-68
2022/03/22 02:20:18;;;;;;;8.63;7.40;;;2.20;99.90;;;;;;5037036;28;20216;-65
2022/03/22 02:22:51;;;;;;;8.57;6.57;;;2.00;99.90;;;;;;5036779;28;20632;-67
2022/03/22 02:25:18;;;;;;;6.00;5.45;;;2.00;99.90;;;;;;5036587;28;20706;-66
2022/03/22 02:27:45;;;;;;;5.88;5.47;;;1.90;99.90;;;;;;5036904;28;20189;-66
2022/03/22 02:30:14;;;;;;;6.40;5.80;;;1.90;99.90;;;;;;5031293;28;20308;-67
2022/03/22 02:32:51;;;;;;;10.95;6.07;;;1.90;99.90;;;;;;5018166;28;20288;-66
2022/03/22 02:35:17;;;;;;;6.10;5.10;;;1.90;99.90;;;;;;5016733;28;20545;-67
2022/03/22 02:37:43;;;;;;;6.18;5.18;;;1.90;99.90;;;;;;5017213;28;20174;-67
2022/03/22 02:40:10;;;;;;;9.20;5.33;;;1.90;99.90;;;;;;5016839;28;20174;-67
2022/03/22 02:42:35;;;;;;;4.72;4.25;;;1.90;99.90;;;;;;5016672;28;20572;-66
2022/03/22 02:45:01;;;;;;;6.70;5.50;;;1.90;99.90;;;;;;5021871;28;20269;-67
2022/03/22 02:47:27;;;;;;;10.27;6.10;;;1.90;99.90;;;;;;5036544;28;20173;-66
2022/03/22 02:49:52;;;;;;;9.83;6.50;;;1.90;99.90;;;;;;5036655;28;20613;-67
2022/03/22 02:52:18;;;;;;;16.30;6.10;;;1.90;99.90;;;;;;5036448;28;20556;-67
2022/03/22 02:54:44;;;;;;;7.43;5.50;;;1.80;99.90;;;;;;5035793;28;20204;-66
2022/03/22 02:57:09;;;;;;;6.60;5.47;;;1.80;99.90;;;;;;5036204;28;20170;-66
2022/03/22 02:59:35;;;;;;;5.77;5.33;;;1.70;99.90;;;;;;5031457;28;20424;-68
2022/03/22 03:02:01;;;;;;;6.37;5.07;;;1.70;99.90;;;;;;5014415;28;20182;-66
2022/03/22 03:04:26;;;;;;;7.40;5.43;;;1.60;99.90;;;;;;5014751;28;20217;-66
2022/03/22 03:06:52;;;;;;;14.13;5.63;;;1.60;99.90;;;;;;5014996;28;20712;-67
2022/03/22 03:09:17;;;;;;;9.20;8.23;;;1.50;99.90;;;;;;5015189;28;20171;-66
2022/03/22 03:11:43;;;;;;;7.33;5.67;;;1.40;99.90;;;;;;5014885;28;20194;-66
2022/03/22 03:16:53;;;;;;;6.25;5.47;;;1.50;99.90;;;;;;5034748;28;20173;-66
2022/03/22 03:19:19;;;;;;;6.60;6.00;;;1.50;99.90;;;;;;5034669;28;20170;-66
2022/03/22 03:21:44;;;;;;;9.93;6.53;;;1.50;99.90;;;;;;5034399;28;20774;-66
2022/03/22 03:24:10;;;;;;;8.43;7.50;;;1.40;99.90;;;;;;5034193;28;20220;-66
2022/03/22 03:26:35;;;;;;;10.93;6.07;;;1.50;99.90;;;;;;5034778;28;20185;-67
2022/03/22 03:29:01;;;;;;;8.93;8.17;;;1.40;99.90;;;;;;5034195;28;20169;-67
2022/03/22 03:31:27;;;;;;;4.60;4.30;;;1.40;99.90;;;;;;5034474;28;20179;-66
2022/03/22 03:33:54;;;;;;;6.33;4.90;;;1.40;99.90;;;;;;5034049;28;20520;-66
2022/03/22 03:36:20;;;;;;;6.65;4.05;;;1.40;99.90;;;;;;5034303;28;20534;-66
2022/03/22 03:38:46;;;;;;;20.10;7.37;;;1.50;99.90;;;;;;5034400;28;20197;-65
2022/03/22 03:43:57;;;;;;;10.13;5.38;;;1.40;99.90;;;;;;5028642;28;20190;-66
2022/03/22 03:49:07;;;;;;;5.07;3.90;;;1.40;99.90;;;;;;5014903;28;20229;-67
2022/03/22 03:51:35;;;;;;;8.43;6.95;;;1.40;99.90;;;;;;5014484;28;20589;-66
2022/03/22 03:54:01;;;;;;;5.30;4.80;;;1.40;99.90;;;;;;5014136;28;20201;-67
2022/03/22 03:56:27;;;;;;;11.02;7.90;;;1.40;99.90;;;;;;5012998;28;20692;-66
2022/03/22 03:58:56;;;;;;;8.20;5.90;;;1.40;99.90;;;;;;5021075;28;20204;-66
2022/03/22 04:01:21;;;;;;;10.63;5.15;;;1.30;99.90;;;;;;4993056;28;1128996;-68
2022/03/22 04:03:47;;;;;;;8.57;6.43;;;1.30;99.90;;;;;;5034788;28;20177;-67
2022/03/22 04:06:13;;;;;;;5.20;4.55;;;1.30;99.90;;;;;;5034949;28;20236;-66
2022/03/22 04:08:39;;;;;;;7.83;5.90;;;1.30;99.90;;;;;;5035107;28;20170;-66
2022/03/22 04:11:04;;;;;;;7.57;5.77;;;1.30;99.90;;;;;;5033657;28;20508;-66
2022/03/22 04:13:30;;;;;;;7.27;4.40;;;1.20;99.90;;;;;;5028252;28;20206;-67
2022/03/22 04:15:56;;;;;;;9.10;4.80;;;1.20;99.90;;;;;;5014876;28;20591;-66
2022/03/22 04:18:22;;;;;;;8.13;5.20;;;1.20;99.90;;;;;;5014820;28;20175;-67
2022/03/22 04:20:49;;;;;;;6.50;5.13;;;1.20;99.90;;;;;;5014942;28;20171;-67
2022/03/22 04:23:15;;;;;;;6.75;5.93;;;1.20;99.90;;;;;;5014641;28;20178;-66
2022/03/22 04:25:40;;;;;;;6.23;4.93;;;1.10;99.90;;;;;;5013452;28;20195;-68
2022/03/22 04:33:34;;;;;;;4.85;4.05;;;1.00;99.90;;;;;;5033147;28;20266;-67
2022/03/22 04:36:00;;;;;;;8.07;5.13;;;1.00;99.90;;;;;;5034180;28;20182;-68
2022/03/22 04:38:25;;;;;;;17.63;8.33;;;1.00;99.90;;;;;;5034165;28;20659;-66
2022/03/22 04:40:51;;;;;;;6.27;4.90;;;0.90;99.90;;;;;;5034497;28;20669;-68
2022/03/22 04:43:17;;;;;;;7.43;4.57;;;0.90;99.90;;;;;;5025600;28;20266;-67
2022/03/22 04:45:43;;;;;;;14.03;6.90;;;0.80;99.90;;;;;;5013068;28;20592;-67
2022/03/22 04:48:09;;;;;;;6.63;6.05;;;0.80;99.90;;;;;;5014638;28;20513;-65
2022/03/22 04:50:35;;;;;;;11.03;5.30;;;0.80;99.90;;;;;;5014429;28;20198;-68
2022/03/22 04:58:28;;;;;;;6.43;5.93;;;0.90;99.90;;;;;;5026149;28;20308;-68
2022/03/22 05:00:54;;;;;;;7.20;5.77;;;0.80;99.90;;;;;;5034061;28;20211;-66
2022/03/22 05:03:20;;;;;;;8.13;5.63;;;0.90;99.90;;;;;;5033386;28;20192;-65
2022/03/22 05:08:32;;;;;;;6.35;4.85;;;1.00;99.90;;;;;;5033856;28;20186;-65
2022/03/22 05:10:59;;;;;;;7.13;6.45;;;0.90;99.90;;;;;;5033777;28;20189;-66
2022/03/22 05:13:24;;;;;;;10.07;4.97;;;0.90;99.90;;;;;;5019578;28;20211;-66
2022/03/22 05:15:51;;;;;;;5.07;4.47;;;0.90;99.90;;;;;;5013957;28;20196;-67
2022/03/22 05:18:17;;;;;;;7.15;5.10;;;0.90;99.90;;;;;;5013853;28;20175;-66
2022/03/22 05:20:43;;;;;;;5.33;4.83;;;0.90;99.90;;;;;;5013708;28;20183;-66
2022/03/22 05:23:08;;;;;;;5.15;4.75;;;0.90;99.90;;;;;;5013546;28;20181;-65
2022/03/22 05:25:34;;;;;;;5.73;5.17;;;0.90;99.90;;;;;;5013641;28;20205;-67
2022/03/22 05:28:02;;;;;;;9.73;5.87;;;0.90;99.90;;;;;;5016256;28;20178;-68
2022/03/22 05:30:28;;;;;;;6.40;5.40;;;0.90;99.90;;;;;;5013850;28;20181;-67
2022/03/22 05:32:54;;;;;;;13.50;6.90;;;0.90;99.90;;;;;;5013556;28;20206;-67
2022/03/22 05:35:20;;;;;;;4.53;4.00;;;1.00;99.90;;;;;;5013190;28;20649;-71
2022/03/22 05:37:45;;;;;;;8.23;5.50;;;1.10;99.90;;;;;;5016814;28;20266;-66
2022/03/22 05:40:11;;;;;;;6.10;5.47;;;1.10;99.90;;;;;;5033223;28;20405;-65
2022/03/22 05:42:39;;;;;;;6.68;6.03;;;1.20;99.90;;;;;;5032667;28;20173;-69
2022/03/22 05:45:07;;;;;;;11.38;6.53;;;1.20;99.90;;;;;;5028893;28;20198;-66
2022/03/22 05:47:32;;;;;;;6.00;5.20;;;1.40;99.90;;;;;;5044274;28;20169;-67
2022/03/22 05:49:58;;;;;;;10.50;4.60;;;1.50;99.90;;;;;;5041779;28;20227;-67
2022/03/22 05:52:23;;;;;;;8.30;6.47;;;1.60;99.90;;;;;;5032234;28;20225;-66
2022/03/22 05:54:49;;;;;;;7.83;7.10;;;1.60;99.90;;;;;;5034506;28;20205;-67
2022/03/22 05:57:15;;;;;;;13.33;9.30;;;1.70;99.90;;;;;;5039137;28;20218;-66
2022/03/22 05:59:41;;;;;;;10.32;6.10;;;1.90;99.90;;;;;;5033197;28;20219;-68
2022/03/22 06:02:06;;;;;;;9.20;5.60;;;2.00;99.90;;;;;;5032850;28;20261;-68
2022/03/22 06:04:32;;;;;;;10.07;6.17;;;2.10;99.90;;;;;;5034198;28;20823;-68
2022/03/22 06:07:00;;;;;;;10.03;8.00;;;2.30;99.90;;;;;;5038529;28;20174;-67
2022/03/22 06:09:26;;;;;;;10.90;6.10;;;2.50;99.90;;;;;;5013340;28;20548;-67
2022/03/22 06:11:52;;;;;;;12.27;7.27;;;2.70;99.90;;;;;;5023809;28;20281;-68
2022/03/22 06:14:17;;;;;;;6.67;5.70;;;2.90;99.90;;;;;;5021402;28;20418;-68
2022/03/22 06:16:43;;;;;;;7.53;5.70;;;3.30;99.90;;;;;;5024399;28;20257;-68
2022/03/22 06:19:09;;;;;;;10.30;7.50;;;3.50;99.90;;;;;;5037862;28;20631;-68
2022/03/22 06:21:34;;;;;;;15.70;6.93;;;3.90;99.90;;;;;;5032713;28;20166;-67
2022/03/22 06:24:00;;;;;;;9.90;6.33;;;4.30;99.90;;;;;;5025440;28;20700;-67
2022/03/22 06:26:25;;;;;;;9.67;6.50;;;4.70;99.90;;;;;;5013153;28;20733;-67
2022/03/22 06:28:51;;;;;;;6.50;5.70;;;5.20;99.90;;;;;;5017804;28;20166;-66
2022/03/22 06:31:17;;;;;;;13.07;7.37;;;5.50;99.10;;;;;;5031369;28;20168;-69
2022/03/22 06:33:42;;;;;;;8.93;7.00;;;5.70;98.40;;;;;;5028839;28;20609;-70
2022/03/22 06:36:08;;;;;;;8.70;7.20;;;6.00;98.20;;;;;;5013023;28;20231;-71
2022/03/22 06:38:37;;;;;;;9.63;6.68;;;6.40;97.20;;;;;;5013937;28;20170;-72
2022/03/22 06:41:03;;;;;;;8.40;6.43;;;6.80;96.00;;;;;;5032528;28;20635;-67
2022/03/22 06:43:29;;;;;;;14.60;7.05;;;7.10;95.90;;;;;;5030517;28;20178;-67
2022/03/22 06:45:55;;;;;;;9.27;6.90;;;7.20;95.50;;;;;;5028267;28;20568;-68
2022/03/22 06:48:22;;;;;;;9.00;7.13;;;7.30;94.50;;;;;;5035154;28;20196;-70
2022/03/22 06:50:48;;;;;;;8.73;7.53;;;7.50;94.20;;;;;;5033980;28;20173;-69
2022/03/22 06:53:13;;;;;;;9.65;7.45;;;7.80;94.20;;;;;;5031309;28;20530;-68
2022/03/22 06:55:40;;;;;;;11.37;7.10;;;8.10;93.30;;;;;;5027601;28;20281;-72
2022/03/22 06:58:06;;;;;;;11.75;7.85;;;8.20;92.50;;;;;;5035326;28;20536;-69
2022/03/22 07:00:32;;;;;;;13.35;9.23;;;8.40;92.60;;;;;;5035170;28;20181;-68
2022/03/22 07:03:00;;;;;;;15.15;9.63;;;8.60;92.00;;;;;;5014713;28;20195;-69
2022/03/22 07:05:27;;;;;;;8.85;7.57;;;8.90;91.50;;;;;;5013820;28;20196;-70
2022/03/22 07:07:52;;;;;;;11.27;6.83;;;9.10;90.60;;;;;;5016052;28;20533;-68
2022/03/22 07:10:19;;;;;;;9.07;7.07;;;9.40;90.70;;;;;;5015785;28;20416;-69
2022/03/22 07:12:58;;;;;;;10.20;9.03;;;9.80;90.30;;;;;;5014738;28;20606;-70
2022/03/22 07:15:29;;;;;;;10.53;8.10;;;10.60;88.80;;;;;;5044930;28;20456;-71
2022/03/22 07:17:57;;;;;;;7.50;6.77;;;11.60;82.90;;;;;;5044386;28;20391;-71
2022/03/22 07:20:23;;;;;;;8.63;7.47;;;12.30;80.20;;;;;;5045384;28;20466;-70
2022/03/22 07:22:49;;;;;;;9.67;7.80;;;12.70;77.20;;;;;;5041783;28;20414;-69
2022/03/22 07:25:15;;;;;;;7.90;7.10;;;13.10;76.80;;;;;;5047386;28;20481;-70
2022/03/22 07:27:40;;;;;;;8.40;7.60;;;13.60;72.30;;;;;;5035833;28;20171;-70
2022/03/22 07:30:07;;;;;;;10.97;8.77;;;14.10;71.00;;;;;;5036200;28;20729;-68
2022/03/22 07:32:33;;;;;;;8.17;7.17;;;14.60;68.60;;;;;;5035730;28;20195;-71
2022/03/22 07:35:00;;;;;;;9.83;7.97;;;14.90;66.20;;;;;;5034753;28;20406;-70
2022/03/22 07:37:28;;;;;;;8.73;7.30;;;15.10;66.00;;;;;;5034606;28;20941;-71
2022/03/22 07:39:56;;;;;;;9.97;8.50;;;15.50;63.90;;;;;;5035247;28;20680;-73
2022/03/22 07:42:24;;;;;;;9.10;8.17;;;15.70;62.50;;;;;;5015396;28;20425;-68
2022/03/22 07:44:49;;;;;;;7.60;6.90;;;15.90;61.30;;;;;;5015144;28;20404;-69
2022/03/22 07:47:15;;;;;;;8.20;7.30;;;16.30;59.30;;;;;;5015849;28;20888;-71
2022/03/22 07:55:10;;;;;;;9.30;7.67;;;17.60;56.30;;;;;;5018156;28;20425;-69
2022/03/22 07:57:36;;;;;;;10.60;8.10;;;17.90;56.00;;;;;;5033107;28;20444;-71
2022/03/22 08:00:04;;;;;;;16.60;8.33;;;18.30;55.40;;;;;;5032926;28;20859;-71
2022/03/22 08:02:29;;;;;;;8.23;7.20;;;18.70;55.30;;;;;;5032995;28;20523;-72
2022/03/22 08:04:55;;;;;;;14.40;8.60;;;19.00;55.10;;;;;;5031510;28;20504;-71
2022/03/22 08:07:20;;;;;;;8.53;7.73;;;19.60;54.00;;;;;;5031881;28;20633;-71
2022/03/22 08:09:46;;;;;;;10.60;8.17;;;20.00;53.10;;;;;;5030096;28;20194;-71
2022/03/22 08:12:12;;;;;;;10.33;8.00;;;20.50;51.60;;;;;;5014873;28;20266;-70
2022/03/22 08:14:38;;;;;;;7.77;6.67;;;20.50;50.10;;;;;;5014595;28;20648;-69
2022/03/22 08:17:04;;;;;;;9.67;7.50;;;20.40;50.80;;;;;;5014636;28;20441;-71
2022/03/22 08:19:30;;;;;;;8.27;7.10;;;20.70;49.40;;;;;;5024725;28;20171;-69
2022/03/22 08:21:56;;;;;;;15.17;8.77;;;21.00;48.60;;;;;;5034543;28;20405;-73
2022/03/22 08:24:22;;;;;;;9.63;8.67;;;21.50;47.80;;;;;;5033965;28;20162;-70
2022/03/22 08:26:48;;;;;;;10.27;7.90;;;21.90;46.80;;;;;;5034186;28;20430;-71
2022/03/22 08:29:14;;;;;;;8.17;7.37;;;21.90;46.50;;;;;;5034367;28;20471;-71
2022/03/22 08:31:40;;;;;;;27.73;9.27;;;22.10;46.90;;;;;;5034453;28;20407;-72
2022/03/22 08:34:05;;;;;;;8.80;7.90;;;22.30;46.40;;;;;;5025643;28;20626;-70
2022/03/22 08:36:33;;;;;;;9.23;8.23;;;22.20;46.20;;;;;;5014535;28;20167;-71
2022/03/22 08:38:59;;;;;;;8.43;7.53;;;22.50;45.60;;;;;;5014353;28;20164;-69
2022/03/22 08:41:25;;;;;;;9.40;8.00;;;22.70;45.60;;;;;;5014674;28;20459;-72
2022/03/22 08:43:52;;;;;;;7.67;6.97;;;22.40;45.40;;;;;;5014118;28;20467;-71
2022/03/22 08:46:20;;;;;;;9.77;8.33;;;22.50;45.30;;;;;;5014379;28;20186;-72
2022/03/22 08:48:47;;;;;;;8.93;8.00;;;22.50;44.90;;;;;;5022585;28;20425;-71
2022/03/22 08:51:13;;;;;;;7.80;7.10;;;22.60;44.10;;;;;;5032907;28;20380;-70
2022/03/22 08:53:38;;;;;;;8.83;8.03;;;22.50;44.30;;;;;;5033776;28;20940;-72
2022/03/22 08:56:04;;;;;;;8.53;7.50;;;22.70;43.80;;;;;;5033909;28;20399;-70
2022/03/22 08:58:30;;;;;;;8.20;7.20;;;23.00;44.10;;;;;;5034093;28;20173;-71
2022/03/22 09:00:56;;;;;;;8.83;7.93;;;23.30;43.70;;;;;;5034262;28;20201;-71
2022/03/22 09:03:22;;;;;;;9.23;8.17;;;23.40;43.20;;;;;;5026244;28;20237;-70
2022/03/22 09:08:34;;;;;;;10.60;8.60;;;23.80;42.70;;;;;;5014147;28;20392;-69
2022/03/22 09:11:00;;;;;;;11.77;8.70;;;24.20;42.30;;;;;;5014387;28;20384;-71
2022/03/22 09:13:28;;;;;;;9.30;8.40;;;24.40;41.90;;;;;;5013804;28;20463;-71
2022/03/22 09:15:55;;;;;;;8.87;7.87;;;24.30;41.90;;;;;;5013911;28;20422;-71
2022/03/22 09:18:21;;;;;;;8.63;7.90;;;24.20;41.80;;;;;;5022232;28;20396;-70
2022/03/22 09:20:48;;;;;;;8.03;7.23;;;24.10;41.90;;;;;;5033654;28;20737;-70
2022/03/22 09:23:15;;;;;;;10.10;9.10;;;24.10;42.20;;;;;;5033537;28;20406;-69
2022/03/22 09:25:41;;;;;;;8.83;7.63;;;24.40;42.00;;;;;;5033584;28;20391;-69
2022/03/22 09:28:08;;;;;;;9.07;8.17;;;24.60;41.70;;;;;;5033629;28;20909;-69
2022/03/22 09:30:35;;;;;;;10.27;9.20;;;24.80;41.40;;;;;;5033547;28;20924;-70
2022/03/22 09:33:03;;;;;;;8.70;7.80;;;25.10;40.90;;;;;;5024616;28;20454;-68
2022/03/22 09:35:30;;;;;;;8.70;7.90;;;25.10;40.80;;;;;;5013389;28;20810;-68
2022/03/22 09:37:55;;;;;;;8.33;7.53;;;25.30;40.90;;;;;;5013590;28;20457;-68
2022/03/22 09:40:26;;;;;;;9.07;8.33;;;25.40;40.20;;;;;;5013387;28;20849;-70
2022/03/22 09:42:51;;;;;;;8.13;7.30;;;25.30;39.90;;;;;;5013672;28;20162;-70
2022/03/22 09:45:29;;;;;;;9.10;8.30;;;25.30;40.50;;;;;;5012956;28;20401;-71
2022/03/22 09:47:56;;;;;;;8.70;7.60;;;25.50;40.20;;;;;;5013662;28;20537;-71
2022/03/22 09:51:44;;;;;;;10.20;9.20;;;25.50;40.40;;;;;;5013504;28;20966;-71
2022/03/22 09:53:15;;;;;;;8.83;8.03;;;25.60;39.80;;;;;;5012708;28;20468;-70
2022/03/22 09:55:40;;;;;;;11.80;9.33;;;25.50;39.90;;;;;;5017823;28;20476;-71
2022/03/22 09:58:06;;;;;;;10.43;8.90;;;25.80;39.70;;;;;;5032939;28;20759;-70
2022/03/22 10:00:32;;;;;;;9.23;8.43;;;25.60;39.50;;;;;;5033551;28;20626;-70
2022/03/22 10:02:59;;;;;;;9.80;9.00;;;25.40;39.70;;;;;;5031235;28;20187;-70
2022/03/22 10:05:26;;;;;;;10.80;9.70;;;25.50;39.70;;;;;;5032766;28;20221;-72
2022/03/22 10:07:59;;;;;;;13.00;9.17;;;25.70;39.40;;;;;;5032915;28;20383;-72
2022/03/22 10:10:26;;;;;;;11.43;9.43;;;25.70;39.50;;;;;;5033149;28;20409;-71
2022/03/22 10:13:02;;;;;;;9.20;8.13;;;25.80;39.20;;;;;;5032967;28;20981;-71
2022/03/22 10:15:37;;;;;;;10.17;9.10;;;25.60;39.20;;;;;;5032709;28;20436;-70
2022/03/22 10:18:08;;;;;;;9.60;8.60;;;25.60;39.40;;;;;;5015516;28;20428;-71
2022/03/22 10:20:36;;;;;;;9.93;9.03;;;25.40;39.60;;;;;;5013215;28;20394;-72
2022/03/22 10:23:05;;;;;;;9.20;8.30;;;25.40;39.50;;;;;;5013026;28;20463;-70
2022/03/22 10:25:32;;;;;;;9.17;8.03;;;25.40;39.30;;;;;;5014243;28;20438;-71
2022/03/22 10:28:00;;;;;;;10.30;9.27;;;25.20;39.00;;;;;;5013422;28;20425;-71
2022/03/22 10:30:26;;;;;;;11.60;10.50;;;25.10;39.30;;;;;;5012476;28;20925;-72
2022/03/22 10:32:52;;;;;;;14.07;9.30;;;24.40;39.60;;;;;;5016699;28;20806;-69
2022/03/22 10:35:27;;;;;;;10.17;8.80;;;24.40;39.70;;;;;;5015207;28;20484;-72
2022/03/22 10:38:02;;;;;;;9.43;8.37;;;24.40;39.40;;;;;;5017135;28;20521;-71
2022/03/22 10:40:32;;;;;;;10.77;9.10;;;24.30;39.40;;;;;;5028489;28;20408;-70
2022/03/22 10:43:00;;;;;;;11.87;9.17;;;24.40;39.30;;;;;;5036885;28;20421;-70
2022/03/22 10:45:30;;;;;;;9.77;8.77;;;24.40;39.60;;;;;;5045664;28;20445;-70
2022/03/22 10:47:57;;;;;;;10.43;9.17;;;24.30;39.40;;;;;;5042142;28;20409;-70
2022/03/22 10:50:24;;;;;;;11.87;10.20;;;24.20;39.40;;;;;;5044826;28;20417;-69
2022/03/22 10:52:56;;;;;;;9.90;8.77;;;24.00;39.60;;;;;;5044600;28;20452;-70
2022/03/22 10:55:24;;;;;;;12.37;9.40;;;23.90;39.60;;;;;;5042301;28;20453;-70
2022/03/22 10:57:55;;;;;;;9.90;8.90;;;23.80;40.10;;;;;;5045216;28;20415;-70
2022/03/22 11:00:22;;;;;;;10.87;9.70;;;23.80;40.00;;;;;;5045927;28;20382;-71
2022/03/22 11:02:51;;;;;;;11.77;9.03;;;23.70;40.00;;;;;;5045691;28;20768;-70
2022/03/22 11:05:20;;;;;;;10.40;9.30;;;23.90;40.40;;;;;;5043345;28;20402;-73
2022/03/22 11:07:49;;;;;;;10.27;9.17;;;24.00;40.80;;;;;;5046054;28;20398;-70
2022/03/22 11:10:19;;;;;;;15.10;9.67;;;23.60;40.00;;;;;;5040591;28;20412;-71
2022/03/22 11:12:46;;;;;;;11.30;8.67;;;23.40;40.20;;;;;;5043705;28;20779;-70
2022/03/22 11:15:14;;;;;;;13.77;10.07;;;23.10;40.50;;;;;;5045140;28;20424;-71
2022/03/22 11:17:41;;;;;;;11.83;9.07;;;22.80;40.80;;;;;;5042822;28;20411;-70
2022/03/22 11:20:09;;;;;;;11.77;9.33;;;22.10;41.80;;;;;;5042947;28;20449;-69
2022/03/22 11:22:36;;;;;;;10.93;8.10;;;21.10;41.70;;;;;;5037463;28;20404;-69
2022/03/22 11:25:12;;;;;;;11.23;8.10;;;20.20;43.00;;;;;;5040204;28;20498;-69
2022/03/22 11:27:39;;;;;;;11.50;8.80;;;19.40;43.30;;;;;;5044789;28;20469;-71
2022/03/22 11:30:06;;;;;;;14.70;10.20;;;18.90;44.20;;;;;;5046210;28;20463;-69
2022/03/22 11:35:24;;;;;;;11.13;8.13;;;17.70;45.50;;;;;;5041331;28;21110;-69
2022/03/22 11:38:00;;;;;;;9.40;7.67;;;17.30;47.20;;;;;;5043147;28;20735;-69
2022/03/22 11:43:23;;;;;;;10.80;7.37;;;16.90;46.60;;;;;;5043053;28;20407;-69
2022/03/22 11:45:51;;;;;;;12.53;8.03;;;16.90;46.20;;;;;;5045739;28;20425;-70
2022/03/22 11:48:17;;;;;;;11.40;7.53;;;16.70;46.80;;;;;;5042419;28;20218;-69
2022/03/22 11:50:45;;;;;;;11.73;8.43;;;16.70;47.40;;;;;;5044258;28;20801;-70
2022/03/22 11:53:18;;;;;;;10.57;8.27;;;16.50;47.10;;;;;;5043449;28;20979;-69
2022/03/22 11:55:48;;;;;;;11.10;8.50;;;16.50;47.30;;;;;;5042269;28;20476;-70
2022/03/22 11:58:14;;;;;;;11.20;7.30;;;16.50;47.90;;;;;;5044715;28;21001;-68
2022/03/22 12:00:55;;;;;;;11.17;8.67;;;16.60;47.20;;;;;;5042459;28;20493;-69
2022/03/22 12:03:28;;;;;;;9.17;7.83;;;16.60;46.60;;;;;;5031935;28;20968;-69
2022/03/22 12:05:54;;;;;;;12.03;8.37;;;16.60;46.80;;;;;;5034993;28;20422;-67
2022/03/22 12:08:20;;;;;;;12.10;7.77;;;16.50;47.00;;;;;;5046360;28;20421;-64
2022/03/22 12:10:50;;;;;;;9.67;6.50;;;16.50;47.30;;;;;;5038482;28;20415;-67
2022/03/22 12:13:17;;;;;;;7.33;6.10;;;16.40;47.20;;;;;;5047532;28;20514;-68
2022/03/22 12:15:43;;;;;;;8.90;7.50;;;16.40;47.60;;;;;;5039380;28;20441;-67
2022/03/22 12:18:10;;;;;;;11.27;7.47;;;16.40;47.60;;;;;;5042777;28;20869;-66
2022/03/22 12:20:36;;;;;;;8.10;7.27;;;16.50;47.50;;;;;;5036679;28;20417;-67
2022/03/22 12:23:03;;;;;;;9.33;7.77;;;16.60;47.90;;;;;;5034592;28;20446;-67
2022/03/22 12:25:35;;;;;;;8.13;7.33;;;16.50;47.60;;;;;;5053394;28;20787;-66
2022/03/22 12:28:07;;;;;;;10.10;7.50;;;16.50;47.80;;;;;;5040184;28;20408;-67
2022/03/22 12:30:35;;;;;;;16.13;9.37;;;16.60;48.30;;;;;;5045159;28;20856;-68
2022/03/22 12:33:07;;;;;;;11.57;8.20;;;16.60;48.40;;;;;;5034541;28;20452;-65
2022/03/22 12:35:34;;;;;;;9.60;7.43;;;16.70;48.00;;;;;;5034518;28;20433;-67
2022/03/22 12:38:00;;;;;;;10.03;7.63;;;16.70;48.40;;;;;;5033704;28;20417;-67
2022/03/22 12:40:26;;;;;;;9.20;7.57;;;16.80;47.90;;;;;;5034484;28;20399;-66
2022/03/22 12:42:54;;;;;;;9.53;7.40;;;16.70;47.50;;;;;;5034562;28;20170;-67
2022/03/22 12:45:20;;;;;;;8.77;7.10;;;16.70;47.60;;;;;;5036567;28;20445;-67
2022/03/22 12:47:48;;;;;;;11.03;8.13;;;16.70;47.80;;;;;;5036063;28;20414;-67
2022/03/22 12:50:16;;;;;;;9.10;6.67;;;16.70;48.50;;;;;;5034355;28;20405;-66
2022/03/22 12:52:42;;;;;;;9.17;7.30;;;16.70;48.50;;;;;;5034256;28;20452;-65
2022/03/22 12:55:10;;;;;;;8.43;7.57;;;16.70;48.90;;;;;;5032240;28;20477;-66
2022/03/22 12:57:38;;;;;;;13.77;8.13;;;16.70;48.90;;;;;;5032768;28;20480;-69
2022/03/22 13:00:05;;;;;;;13.10;8.10;;;16.70;49.30;;;;;;5033076;28;20424;-66
2022/03/22 13:02:31;;;;;;;13.90;8.67;;;16.70;48.90;;;;;;5014968;28;20489;-67
2022/03/22 13:04:56;;;;;;;8.87;6.90;;;16.80;48.90;;;;;;5013623;28;20425;-67
2022/03/22 13:07:28;;;;;;;10.93;8.97;;;16.80;49.10;;;;;;5029154;28;20649;-66
2022/03/22 13:12:41;;;;;;;10.77;7.83;;;16.80;48.90;;;;;;5033957;28;20506;-67
2022/03/22 13:15:09;;;;;;;9.80;8.33;;;16.80;49.10;;;;;;5033281;28;20533;-67
2022/03/22 13:17:46;;;;;;;13.90;8.80;;;16.80;49.70;;;;;;5033984;28;20412;-70
2022/03/22 13:20:24;;;;;;;10.10;8.07;;;16.90;49.50;;;;;;5032440;28;20368;-68
2022/03/22 13:23:04;;;;;;;9.87;7.33;;;16.90;49.20;;;;;;5012813;28;20449;-70
2022/03/22 13:25:39;;;;;;;9.20;7.43;;;16.90;48.90;;;;;;5011761;28;20426;-70
2022/03/22 13:28:11;;;;;;;11.13;8.33;;;17.00;48.90;;;;;;5011929;28;20409;-66
2022/03/22 13:30:44;;;;;;;13.87;8.60;;;17.00;48.90;;;;;;5012019;28;20406;-69